sensor_id;sensor_type;location;lat;lon;timestamp;temperature;humidity
48019;DHT22;33786;48.690;9.562;2023-08-21T00:00:06;21.70;99.90
48019;DHT22;33786;48.690;9.562;2023-08-21T00:02:33;21.80;99.90
48019;DHT22;33786;48.690;9.562;2023-08-21T00:05:00;21.70;99.90
48019;DHT22;33786;48.690;9.562;2023-08-21T00:07:27;21.70;99.90
48019;DHT22;33786;48.690;9.562;2023-08-21T00:09:53;21.70;99.90
48019;DHT22;33786;48.690;9.562;2023-08-21T00:12:20;21.70;99.90
48019;DHT22;33786;48.690;9.562;2023-08-21T00:14:47;21.60;99.90
48019;DHT22;33786;48.690;9.562;2023-08-21T00:17:14;21.60;99.90
48019;DHT22;33786;48.690;9.562;2023-08-21T00:19:40;21.60;99.90
48019;DHT22;33786;48.690;9.562;2023-08-21T00:22:07;21.60;99.90
48019;DHT22;33786;48.690;9.562;2023-08-21T00:24:34;21.60;99.90
48019;DHT22;33786;48.690;9.562;2023-08-21T00:27:01;21.60;99.90
48019;DHT22;33786;48.690;9.562;2023-08-21T00:29:30;21.40;99.90
48019;DHT22;33786;48.690;9.562;2023-08-21T00:31:57;21.40;99.90
48019;DHT22;33786;48.690;9.562;2023-08-21T00:34:24;21.40;99.90
48019;DHT22;33786;48.690;9.562;2023-08-21T00:36:50;21.40;99.90
48019;DHT22;33786;48.690;9.562;2023-08-21T00:39:17;21.30;99.90
48019;DHT22;33786;48.690;9.562;2023-08-21T00:41:44;21.30;99.90
48019;DHT22;33786;48.690;9.562;2023-08-21T00:44:10;21.30;99.90
48019;DHT22;33786;48.690;9.562;2023-08-21T00:46:37;21.20;99.90
48019;DHT22;33786;48.690;9.562;2023-08-21T00:49:04;21.20;99.90
48019;DHT22;33786;48.690;9.562;2023-08-21T00:51:33;21.20;99.90
48019;DHT22;33786;48.690;9.562;2023-08-21T00:54:00;21.20;99.90
48019;DHT22;33786;48.690;9.562;2023-08-21T00:56:27;21.20;99.90
48019;DHT22;33786;48.690;9.562;2023-08-21T00:58:54;21.20;99.90
48019;DHT22;33786;48.690;9.562;2023-08-21T01:01:21;21.10;99.90
48019;DHT22;33786;48.690;9.562;2023-08-21T01:03:49;21.20;99.90
48019;DHT22;33786;48.690;9.562;2023-08-21T01:06:16;21.10;99.90
48019;DHT22;33786;48.690;9.562;2023-08-21T01:08:46;21.10;99.90
48019;DHT22;33786;48.690;9.562;2023-08-21T01:11:14;21.10;99.90
48019;DHT22;33786;48.690;9.562;2023-08-21T01:16:15;21.10;99.90
48019;DHT22;33786;48.690;9.562;2023-08-21T01:18:43;21.10;99.90
48019;DHT22;33786;48.690;9.562;2023-08-21T01:21:11;21.10;99.90
48019;DHT22;33786;48.690;9.562;2023-08-21T01:23:40;21.10;99.90
48019;DHT22;33786;48.690;9.562;2023-08-21T01:26:08;21.00;99.90
48019;DHT22;33786;48.690;9.562;2023-08-21T01:28:35;20.90;99.90
48019;DHT22;33786;48.690;9.562;2023-08-21T01:31:14;20.90;99.90
48019;DHT22;33786;48.690;9.562;2023-08-21T01:33:44;20.90;99.90
48019;DHT22;33786;48.690;9.562;2023-08-21T01:36:11;20.80;99.90
48019;DHT22;33786;48.690;9.562;2023-08-21T01:38:38;20.80;99.90
48019;DHT22;33786;48.690;9.562;2023-08-21T01:41:05;20.70;99.90
48019;DHT22;33786;48.690;9.562;2023-08-21T01:43:32;20.70;99.90
48019;DHT22;33786;48.690;9.562;2023-08-21T01:45:59;20.70;99.90
48019;DHT22;33786;48.690;9.562;2023-08-21T01:48:26;20.70;99.90
48019;DHT22;33786;48.690;9.562;2023-08-21T01:50:53;20.70;99.90
48019;DHT22;33786;48.690;9.562;2023-08-21T01:53:20;20.70;99.90
48019;DHT22;33786;48.690;9.562;2023-08-21T01:55:46;20.60;99.90
48019;DHT22;33786;48.690;9.562;2023-08-21T01:58:13;20.60;99.90
48019;DHT22;33786;48.690;9.562;2023-08-21T02:00:40;20.60;99.90
48019;DHT22;33786;48.690;9.562;2023-08-21T02:03:07;20.60;99.90
48019;DHT22;33786;48.690;9.562;2023-08-21T02:05:37;20.50;99.90
48019;DHT22;33786;48.690;9.562;2023-08-21T02:08:04;20.50;99.90
48019;DHT22;33786;48.690;9.562;2023-08-21T02:10:31;20.50;99.90
48019;DHT22;33786;48.690;9.562;2023-08-21T02:12:58;20.50;99.90
48019;DHT22;33786;48.690;9.562;2023-08-21T02:15:24;20.50;99.90
48019;DHT22;33786;48.690;9.562;2023-08-21T02:17:51;20.50;99.90
48019;DHT22;33786;48.690;9.562;2023-08-21T02:20:18;20.50;99.90
48019;DHT22;33786;48.690;9.562;2023-08-21T02:22:44;20.50;99.90
48019;DHT22;33786;48.690;9.562;2023-08-21T02:25:11;20.40;99.90
48019;DHT22;33786;48.690;9.562;2023-08-21T02:27:38;20.30;99.90
48019;DHT22;33786;48.690;9.562;2023-08-21T02:30:05;20.30;99.90
48019;DHT22;33786;48.690;9.562;2023-08-21T02:32:32;20.30;99.90
48019;DHT22;33786;48.690;9.562;2023-08-21T02:34:59;20.30;99.90
48019;DHT22;33786;48.690;9.562;2023-08-21T02:37:25;20.20;99.90
48019;DHT22;33786;48.690;9.562;2023-08-21T02:39:52;20.20;99.90
48019;DHT22;33786;48.690;9.562;2023-08-21T02:42:19;20.20;99.90
48019;DHT22;33786;48.690;9.562;2023-08-21T02:44:46;20.20;99.90
48019;DHT22;33786;48.690;9.562;2023-08-21T02:47:13;20.20;99.90
48019;DHT22;33786;48.690;9.562;2023-08-21T02:49:40;20.10;99.90
48019;DHT22;33786;48.690;9.562;2023-08-21T02:52:06;20.10;99.90
48019;DHT22;33786;48.690;9.562;2023-08-21T02:54:33;20.10;99.90
48019;DHT22;33786;48.690;9.562;2023-08-21T02:57:00;20.10;99.90
48019;DHT22;33786;48.690;9.562;2023-08-21T02:59:27;20.10;99.90
48019;DHT22;33786;48.690;9.562;2023-08-21T03:01:53;20.00;99.90
48019;DHT22;33786;48.690;9.562;2023-08-21T03:04:20;19.90;99.90
48019;DHT22;33786;48.690;9.562;2023-08-21T03:06:47;19.90;99.90
48019;DHT22;33786;48.690;9.562;2023-08-21T03:09:14;20.00;99.90
48019;DHT22;33786;48.690;9.562;2023-08-21T03:11:41;19.90;99.90
48019;DHT22;33786;48.690;9.562;2023-08-21T03:14:07;19.90;99.90
48019;DHT22;33786;48.690;9.562;2023-08-21T03:16:34;20.00;99.90
48019;DHT22;33786;48.690;9.562;2023-08-21T03:19:01;20.00;99.90
48019;DHT22;33786;48.690;9.562;2023-08-21T03:21:28;20.10;99.90
48019;DHT22;33786;48.690;9.562;2023-08-21T03:23:56;20.10;99.90
48019;DHT22;33786;48.690;9.562;2023-08-21T03:26:23;20.20;99.90
48019;DHT22;33786;48.690;9.562;2023-08-21T03:28:50;20.20;99.90
48019;DHT22;33786;48.690;9.562;2023-08-21T03:31:17;20.20;99.90
48019;DHT22;33786;48.690;9.562;2023-08-21T03:33:44;20.30;99.90
48019;DHT22;33786;48.690;9.562;2023-08-21T03:36:12;20.30;99.90
48019;DHT22;33786;48.690;9.562;2023-08-21T03:38:39;20.30;99.90
48019;DHT22;33786;48.690;9.562;2023-08-21T03:41:05;20.30;99.90
48019;DHT22;33786;48.690;9.562;2023-08-21T03:43:32;20.20;99.90
48019;DHT22;33786;48.690;9.562;2023-08-21T03:45:59;20.20;99.90
48019;DHT22;33786;48.690;9.562;2023-08-21T03:48:26;20.20;99.90
48019;DHT22;33786;48.690;9.562;2023-08-21T03:50:53;20.10;99.90
48019;DHT22;33786;48.690;9.562;2023-08-21T03:53:19;20.10;99.90
48019;DHT22;33786;48.690;9.562;2023-08-21T03:55:46;20.00;99.90
48019;DHT22;33786;48.690;9.562;2023-08-21T03:58:13;20.00;99.90
48019;DHT22;33786;48.690;9.562;2023-08-21T04:00:40;20.00;99.90
48019;DHT22;33786;48.690;9.562;2023-08-21T04:03:07;20.00;99.90
48019;DHT22;33786;48.690;9.562;2023-08-21T04:05:34;20.00;99.90
48019;DHT22;33786;48.690;9.562;2023-08-21T04:08:00;20.00;99.90
48019;DHT22;33786;48.690;9.562;2023-08-21T04:10:27;19.90;99.90
48019;DHT22;33786;48.690;9.562;2023-08-21T04:12:54;19.90;99.90
48019;DHT22;33786;48.690;9.562;2023-08-21T04:15:20;19.90;99.90
48019;DHT22;33786;48.690;9.562;2023-08-21T04:17:47;19.80;99.90
48019;DHT22;33786;48.690;9.562;2023-08-21T04:20:14;19.80;99.90
48019;DHT22;33786;48.690;9.562;2023-08-21T04:22:41;19.80;99.90
48019;DHT22;33786;48.690;9.562;2023-08-21T04:25:08;19.80;99.90
48019;DHT22;33786;48.690;9.562;2023-08-21T04:27:35;19.80;99.90
48019;DHT22;33786;48.690;9.562;2023-08-21T04:30:02;19.80;99.90
48019;DHT22;33786;48.690;9.562;2023-08-21T04:32:29;19.90;99.90
48019;DHT22;33786;48.690;9.562;2023-08-21T04:34:55;19.90;99.90
48019;DHT22;33786;48.690;9.562;2023-08-21T04:37:23;20.00;99.90
48019;DHT22;33786;48.690;9.562;2023-08-21T04:39:53;20.00;99.90
48019;DHT22;33786;48.690;9.562;2023-08-21T04:42:20;19.90;99.90
48019;DHT22;33786;48.690;9.562;2023-08-21T04:44:47;20.00;99.90
48019;DHT22;33786;48.690;9.562;2023-08-21T04:47:23;20.10;99.90
48019;DHT22;33786;48.690;9.562;2023-08-21T04:49:50;20.10;99.90
48019;DHT22;33786;48.690;9.562;2023-08-21T04:52:17;20.20;99.90
48019;DHT22;33786;48.690;9.562;2023-08-21T04:54:44;20.30;99.90
48019;DHT22;33786;48.690;9.562;2023-08-21T04:57:12;20.40;99.90
48019;DHT22;33786;48.690;9.562;2023-08-21T04:59:39;20.50;99.90
48019;DHT22;33786;48.690;9.562;2023-08-21T05:02:06;20.60;99.90
48019;DHT22;33786;48.690;9.562;2023-08-21T05:04:34;20.70;99.90
48019;DHT22;33786;48.690;9.562;2023-08-21T05:07:00;20.80;99.90
48019;DHT22;33786;48.690;9.562;2023-08-21T05:09:27;21.00;99.90
48019;DHT22;33786;48.690;9.562;2023-08-21T05:11:54;21.20;99.90
48019;DHT22;33786;48.690;9.562;2023-08-21T05:14:22;21.40;99.90
48019;DHT22;33786;48.690;9.562;2023-08-21T05:16:49;21.60;99.90
48019;DHT22;33786;48.690;9.562;2023-08-21T05:19:16;21.80;99.90
48019;DHT22;33786;48.690;9.562;2023-08-21T05:21:43;22.00;99.90
48019;DHT22;33786;48.690;9.562;2023-08-21T05:24:10;22.10;99.90
48019;DHT22;33786;48.690;9.562;2023-08-21T05:26:37;22.50;99.90
48019;DHT22;33786;48.690;9.562;2023-08-21T05:29:04;22.80;99.90
48019;DHT22;33786;48.690;9.562;2023-08-21T05:31:31;23.00;99.90
48019;DHT22;33786;48.690;9.562;2023-08-21T05:33:58;23.40;99.90
48019;DHT22;33786;48.690;9.562;2023-08-21T05:36:24;23.80;99.90
48019;DHT22;33786;48.690;9.562;2023-08-21T05:38:51;24.20;99.90
48019;DHT22;33786;48.690;9.562;2023-08-21T05:41:18;24.60;99.90
48019;DHT22;33786;48.690;9.562;2023-08-21T05:43:45;25.30;99.90
48019;DHT22;33786;48.690;9.562;2023-08-21T05:46:12;25.80;99.90
48019;DHT22;33786;48.690;9.562;2023-08-21T05:48:38;26.60;99.90
48019;DHT22;33786;48.690;9.562;2023-08-21T05:51:05;28.10;99.90
48019;DHT22;33786;48.690;9.562;2023-08-21T05:53:32;29.50;99.90
48019;DHT22;33786;48.690;9.562;2023-08-21T05:55:59;31.10;98.30
48019;DHT22;33786;48.690;9.562;2023-08-21T05:58:25;32.20;96.70
48019;DHT22;33786;48.690;9.562;2023-08-21T06:00:56;32.90;95.00
48019;DHT22;33786;48.690;9.562;2023-08-21T06:03:23;33.60;93.80
48019;DHT22;33786;48.690;9.562;2023-08-21T06:05:50;34.20;92.80
48019;DHT22;33786;48.690;9.562;2023-08-21T06:08:17;34.80;91.90
48019;DHT22;33786;48.690;9.562;2023-08-21T06:10:51;35.10;91.50
48019;DHT22;33786;48.690;9.562;2023-08-21T06:13:18;35.60;90.60
48019;DHT22;33786;48.690;9.562;2023-08-21T06:15:45;35.60;90.10
48019;DHT22;33786;48.690;9.562;2023-08-21T06:18:12;35.30;90.40
48019;DHT22;33786;48.690;9.562;2023-08-21T06:20:39;35.40;89.50
48019;DHT22;33786;48.690;9.562;2023-08-21T06:23:05;35.90;89.20
48019;DHT22;33786;48.690;9.562;2023-08-21T06:25:32;36.70;87.10
48019;DHT22;33786;48.690;9.562;2023-08-21T06:27:59;37.10;86.00
48019;DHT22;33786;48.690;9.562;2023-08-21T06:30:26;36.80;85.60
48019;DHT22;33786;48.690;9.562;2023-08-21T06:32:54;37.30;84.90
48019;DHT22;33786;48.690;9.562;2023-08-21T06:35:21;38.10;82.80
48019;DHT22;33786;48.690;9.562;2023-08-21T06:37:47;38.60;81.20
48019;DHT22;33786;48.690;9.562;2023-08-21T06:40:14;39.20;80.00
48019;DHT22;33786;48.690;9.562;2023-08-21T06:42:41;38.30;81.40
48019;DHT22;33786;48.690;9.562;2023-08-21T06:45:08;38.30;80.70
48019;DHT22;33786;48.690;9.562;2023-08-21T06:47:34;38.90;79.60
48019;DHT22;33786;48.690;9.562;2023-08-21T06:50:01;38.80;79.70
48019;DHT22;33786;48.690;9.562;2023-08-21T06:52:28;38.30;80.40
48019;DHT22;33786;48.690;9.562;2023-08-21T06:54:55;38.70;79.40
48019;DHT22;33786;48.690;9.562;2023-08-21T06:57:22;38.50;79.30
48019;DHT22;33786;48.690;9.562;2023-08-21T06:59:49;38.40;79.20
48019;DHT22;33786;48.690;9.562;2023-08-21T07:02:15;37.80;80.10
48019;DHT22;33786;48.690;9.562;2023-08-21T07:04:42;38.20;79.80
48019;DHT22;33786;48.690;9.562;2023-08-21T07:07:09;39.30;78.90
48019;DHT22;33786;48.690;9.562;2023-08-21T07:09:36;40.10;77.10
48019;DHT22;33786;48.690;9.562;2023-08-21T07:12:02;39.60;77.20
48019;DHT22;33786;48.690;9.562;2023-08-21T07:14:29;39.90;75.60
48019;DHT22;33786;48.690;9.562;2023-08-21T07:16:56;39.70;75.80
48019;DHT22;33786;48.690;9.562;2023-08-21T07:19:23;39.60;76.30
48019;DHT22;33786;48.690;9.562;2023-08-21T07:21:50;39.70;76.50
48019;DHT22;33786;48.690;9.562;2023-08-21T07:24:16;39.80;76.20
48019;DHT22;33786;48.690;9.562;2023-08-21T07:26:43;40.60;76.00
48019;DHT22;33786;48.690;9.562;2023-08-21T07:29:10;41.10;73.30
48019;DHT22;33786;48.690;9.562;2023-08-21T07:31:37;40.30;74.80
48019;DHT22;33786;48.690;9.562;2023-08-21T07:34:04;39.90;73.80
48019;DHT22;33786;48.690;9.562;2023-08-21T07:36:33;40.20;74.80
48019;DHT22;33786;48.690;9.562;2023-08-21T07:39:00;40.10;73.80
48019;DHT22;33786;48.690;9.562;2023-08-21T07:41:27;40.60;74.70
48019;DHT22;33786;48.690;9.562;2023-08-21T07:43:53;41.10;72.80
48019;DHT22;33786;48.690;9.562;2023-08-21T07:46:20;41.30;73.10
48019;DHT22;33786;48.690;9.562;2023-08-21T07:48:49;41.50;71.60
48019;DHT22;33786;48.690;9.562;2023-08-21T07:51:16;41.30;71.00
48019;DHT22;33786;48.690;9.562;2023-08-21T07:53:42;42.00;71.00
48019;DHT22;33786;48.690;9.562;2023-08-21T07:56:09;41.90;71.10
48019;DHT22;33786;48.690;9.562;2023-08-21T07:58:36;41.60;71.60
48019;DHT22;33786;48.690;9.562;2023-08-21T08:01:03;41.10;71.50
48019;DHT22;33786;48.690;9.562;2023-08-21T08:03:31;40.20;72.30
48019;DHT22;33786;48.690;9.562;2023-08-21T08:05:59;39.60;73.60
48019;DHT22;33786;48.690;9.562;2023-08-21T08:08:26;39.80;72.40
48019;DHT22;33786;48.690;9.562;2023-08-21T08:10:53;40.30;73.60
48019;DHT22;33786;48.690;9.562;2023-08-21T08:13:20;40.70;72.90
48019;DHT22;33786;48.690;9.562;2023-08-21T08:15:47;40.40;73.70
48019;DHT22;33786;48.690;9.562;2023-08-21T08:18:13;39.40;73.70
48019;DHT22;33786;48.690;9.562;2023-08-21T08:20:41;39.00;75.20
48019;DHT22;33786;48.690;9.562;2023-08-21T08:23:07;39.00;75.20
48019;DHT22;33786;48.690;9.562;2023-08-21T08:25:34;38.50;75.60
48019;DHT22;33786;48.690;9.562;2023-08-21T08:28:01;38.40;75.50
48019;DHT22;33786;48.690;9.562;2023-08-21T08:30:28;38.50;75.90
48019;DHT22;33786;48.690;9.562;2023-08-21T08:32:54;39.20;74.90
48019;DHT22;33786;48.690;9.562;2023-08-21T08:35:22;39.20;75.40
48019;DHT22;33786;48.690;9.562;2023-08-21T08:37:48;38.00;75.80
48019;DHT22;33786;48.690;9.562;2023-08-21T08:40:15;37.30;77.20
48019;DHT22;33786;48.690;9.562;2023-08-21T08:42:42;36.80;78.00
48019;DHT22;33786;48.690;9.562;2023-08-21T08:45:09;36.50;79.50
48019;DHT22;33786;48.690;9.562;2023-08-21T08:47:38;36.20;81.20
48019;DHT22;33786;48.690;9.562;2023-08-21T08:50:07;35.70;81.70
48019;DHT22;33786;48.690;9.562;2023-08-21T08:52:36;35.80;83.00
48019;DHT22;33786;48.690;9.562;2023-08-21T08:55:03;36.10;81.20
48019;DHT22;33786;48.690;9.562;2023-08-21T08:57:30;36.40;82.10
48019;DHT22;33786;48.690;9.562;2023-08-21T08:59:57;36.50;82.00
48019;DHT22;33786;48.690;9.562;2023-08-21T09:02:25;36.80;81.50
48019;DHT22;33786;48.690;9.562;2023-08-21T09:04:53;36.70;80.60
48019;DHT22;33786;48.690;9.562;2023-08-21T09:07:20;36.40;80.40
48019;DHT22;33786;48.690;9.562;2023-08-21T09:09:47;36.00;82.10
48019;DHT22;33786;48.690;9.562;2023-08-21T09:12:16;36.10;81.80
48019;DHT22;33786;48.690;9.562;2023-08-21T09:14:43;35.90;82.00
48019;DHT22;33786;48.690;9.562;2023-08-21T09:17:10;35.50;83.00
48019;DHT22;33786;48.690;9.562;2023-08-21T09:19:37;35.20;83.50
48019;DHT22;33786;48.690;9.562;2023-08-21T09:22:17;34.80;84.70
48019;DHT22;33786;48.690;9.562;2023-08-21T09:25:00;35.40;82.70
48019;DHT22;33786;48.690;9.562;2023-08-21T09:27:27;36.60;80.50
48019;DHT22;33786;48.690;9.562;2023-08-21T09:29:54;37.20;79.70
48019;DHT22;33786;48.690;9.562;2023-08-21T09:32:21;38.10;77.60
48019;DHT22;33786;48.690;9.562;2023-08-21T09:34:47;38.80;77.00
48019;DHT22;33786;48.690;9.562;2023-08-21T09:37:16;39.00;76.20
48019;DHT22;33786;48.690;9.562;2023-08-21T09:39:43;39.10;77.00
48019;DHT22;33786;48.690;9.562;2023-08-21T09:42:11;39.60;75.30
48019;DHT22;33786;48.690;9.562;2023-08-21T09:44:39;39.30;76.00
48019;DHT22;33786;48.690;9.562;2023-08-21T09:47:09;39.40;75.10
48019;DHT22;33786;48.690;9.562;2023-08-21T09:49:36;39.10;75.80
48019;DHT22;33786;48.690;9.562;2023-08-21T09:52:05;39.00;76.30
48019;DHT22;33786;48.690;9.562;2023-08-21T09:54:34;38.60;74.90
48019;DHT22;33786;48.690;9.562;2023-08-21T09:57:02;37.40;77.40
48019;DHT22;33786;48.690;9.562;2023-08-21T09:59:32;37.20;77.50
48019;DHT22;33786;48.690;9.562;2023-08-21T10:02:00;36.70;77.30
48019;DHT22;33786;48.690;9.562;2023-08-21T10:04:31;36.90;77.40
48019;DHT22;33786;48.690;9.562;2023-08-21T10:06:58;36.50;79.10
48019;DHT22;33786;48.690;9.562;2023-08-21T10:09:27;37.20;77.60
48019;DHT22;33786;48.690;9.562;2023-08-21T10:11:55;36.90;78.10
48019;DHT22;33786;48.690;9.562;2023-08-21T10:14:23;36.50;77.80
48019;DHT22;33786;48.690;9.562;2023-08-21T10:16:53;36.40;78.30
48019;DHT22;33786;48.690;9.562;2023-08-21T10:19:21;36.30;80.00
48019;DHT22;33786;48.690;9.562;2023-08-21T10:21:48;36.30;79.60
48019;DHT22;33786;48.690;9.562;2023-08-21T10:24:28;36.30;79.60
48019;DHT22;33786;48.690;9.562;2023-08-21T10:26:59;36.50;80.80
48019;DHT22;33786;48.690;9.562;2023-08-21T10:29:26;36.40;79.80
48019;DHT22;33786;48.690;9.562;2023-08-21T10:31:59;35.80;80.30
48019;DHT22;33786;48.690;9.562;2023-08-21T10:34:36;35.50;80.70
48019;DHT22;33786;48.690;9.562;2023-08-21T10:39:36;35.30;80.60
48019;DHT22;33786;48.690;9.562;2023-08-21T10:42:05;35.00;82.70
48019;DHT22;33786;48.690;9.562;2023-08-21T10:47:18;35.00;83.70
48019;DHT22;33786;48.690;9.562;2023-08-21T10:49:55;35.00;81.30
48019;DHT22;33786;48.690;9.562;2023-08-21T10:52:24;35.30;80.30
48019;DHT22;33786;48.690;9.562;2023-08-21T10:54:53;35.20;79.40
48019;DHT22;33786;48.690;9.562;2023-08-21T10:57:24;35.00;82.10
48019;DHT22;33786;48.690;9.562;2023-08-21T11:02:24;34.60;82.00
48019;DHT22;33786;48.690;9.562;2023-08-21T11:04:51;34.50;82.00
48019;DHT22;33786;48.690;9.562;2023-08-21T11:07:19;34.70;81.80
48019;DHT22;33786;48.690;9.562;2023-08-21T11:09:46;34.70;80.20
48019;DHT22;33786;48.690;9.562;2023-08-21T11:12:14;34.90;79.70
48019;DHT22;33786;48.690;9.562;2023-08-21T11:14:41;35.10;81.70
48019;DHT22;33786;48.690;9.562;2023-08-21T11:17:08;35.40;81.80
48019;DHT22;33786;48.690;9.562;2023-08-21T11:19:36;35.80;83.00
48019;DHT22;33786;48.690;9.562;2023-08-21T11:22:03;35.80;79.80
48019;DHT22;33786;48.690;9.562;2023-08-21T11:26:58;35.50;79.60
48019;DHT22;33786;48.690;9.562;2023-08-21T11:29:25;35.90;81.10
48019;DHT22;33786;48.690;9.562;2023-08-21T11:31:52;36.00;80.20
48019;DHT22;33786;48.690;9.562;2023-08-21T11:34:20;36.10;79.60
48019;DHT22;33786;48.690;9.562;2023-08-21T11:36:49;35.90;80.60
48019;DHT22;33786;48.690;9.562;2023-08-21T11:39:17;36.10;81.20
48019;DHT22;33786;48.690;9.562;2023-08-21T11:41:56;36.30;79.80
48019;DHT22;33786;48.690;9.562;2023-08-21T11:44:23;36.40;79.60
48019;DHT22;33786;48.690;9.562;2023-08-21T11:46:53;36.30;79.20
48019;DHT22;33786;48.690;9.562;2023-08-21T11:49:20;36.40;80.70
48019;DHT22;33786;48.690;9.562;2023-08-21T11:51:49;36.40;79.10
48019;DHT22;33786;48.690;9.562;2023-08-21T11:54:17;36.20;79.10
48019;DHT22;33786;48.690;9.562;2023-08-21T11:56:46;36.10;77.80
48019;DHT22;33786;48.690;9.562;2023-08-21T11:59:21;35.90;77.70
48019;DHT22;33786;48.690;9.562;2023-08-21T12:01:49;36.10;78.50
48019;DHT22;33786;48.690;9.562;2023-08-21T12:04:16;36.20;78.40
48019;DHT22;33786;48.690;9.562;2023-08-21T12:06:47;36.40;79.60
48019;DHT22;33786;48.690;9.562;2023-08-21T12:09:13;36.50;79.10
48019;DHT22;33786;48.690;9.562;2023-08-21T12:11:40;36.10;77.30
48019;DHT22;33786;48.690;9.562;2023-08-21T12:14:07;35.80;78.70
48019;DHT22;33786;48.690;9.562;2023-08-21T12:16:34;35.40;78.80
48019;DHT22;33786;48.690;9.562;2023-08-21T12:19:01;35.30;79.00
48019;DHT22;33786;48.690;9.562;2023-08-21T12:21:29;35.20;80.30
48019;DHT22;33786;48.690;9.562;2023-08-21T12:23:57;35.20;79.50
48019;DHT22;33786;48.690;9.562;2023-08-21T12:26:24;35.00;79.10
48019;DHT22;33786;48.690;9.562;2023-08-21T12:29:00;34.90;79.90
48019;DHT22;33786;48.690;9.562;2023-08-21T12:31:27;35.30;81.10
48019;DHT22;33786;48.690;9.562;2023-08-21T12:33:53;35.50;80.80
48019;DHT22;33786;48.690;9.562;2023-08-21T12:36:20;35.60;79.40
48019;DHT22;33786;48.690;9.562;2023-08-21T12:38:47;35.60;79.40
48019;DHT22;33786;48.690;9.562;2023-08-21T12:41:14;35.40;79.10
48019;DHT22;33786;48.690;9.562;2023-08-21T12:43:41;35.10;80.40
48019;DHT22;33786;48.690;9.562;2023-08-21T12:46:07;35.30;79.90
48019;DHT22;33786;48.690;9.562;2023-08-21T12:48:35;35.30;78.70
48019;DHT22;33786;48.690;9.562;2023-08-21T12:51:02;35.30;78.20
48019;DHT22;33786;48.690;9.562;2023-08-21T12:53:29;35.00;79.20
48019;DHT22;33786;48.690;9.562;2023-08-21T12:55:56;35.00;78.60
48019;DHT22;33786;48.690;9.562;2023-08-21T12:58:22;34.80;81.20
48019;DHT22;33786;48.690;9.562;2023-08-21T13:00:49;35.20;81.10
48019;DHT22;33786;48.690;9.562;2023-08-21T13:03:16;35.40;78.80
48019;DHT22;33786;48.690;9.562;2023-08-21T13:05:43;35.60;78.50
48019;DHT22;33786;48.690;9.562;2023-08-21T13:08:10;35.60;78.40
48019;DHT22;33786;48.690;9.562;2023-08-21T13:10:37;35.50;79.10
48019;DHT22;33786;48.690;9.562;2023-08-21T13:13:03;35.60;80.00
48019;DHT22;33786;48.690;9.562;2023-08-21T13:15:30;35.80;79.20
48019;DHT22;33786;48.690;9.562;2023-08-21T13:17:57;35.80;80.00
48019;DHT22;33786;48.690;9.562;2023-08-21T13:20:24;35.80;79.60
48019;DHT22;33786;48.690;9.562;2023-08-21T13:22:51;35.60;79.10
48019;DHT22;33786;48.690;9.562;2023-08-21T13:25:18;35.70;77.80
48019;DHT22;33786;48.690;9.562;2023-08-21T13:27:46;35.70;78.20
48019;DHT22;33786;48.690;9.562;2023-08-21T13:30:13;35.30;79.10
48019;DHT22;33786;48.690;9.562;2023-08-21T13:32:41;35.20;77.90
48019;DHT22;33786;48.690;9.562;2023-08-21T13:35:08;34.90;77.80
48019;DHT22;33786;48.690;9.562;2023-08-21T13:37:38;34.70;78.90
48019;DHT22;33786;48.690;9.562;2023-08-21T13:40:06;34.80;78.30
48019;DHT22;33786;48.690;9.562;2023-08-21T13:42:42;34.80;78.50
48019;DHT22;33786;48.690;9.562;2023-08-21T13:45:10;34.60;78.40
48019;DHT22;33786;48.690;9.562;2023-08-21T13:47:40;34.60;79.70
48019;DHT22;33786;48.690;9.562;2023-08-21T13:50:09;34.70;79.40
48019;DHT22;33786;48.690;9.562;2023-08-21T13:52:36;34.70;79.70
48019;DHT22;33786;48.690;9.562;2023-08-21T13:55:06;34.60;78.80
48019;DHT22;33786;48.690;9.562;2023-08-21T13:57:33;34.60;78.90
48019;DHT22;33786;48.690;9.562;2023-08-21T14:00:01;34.60;78.90
48019;DHT22;33786;48.690;9.562;2023-08-21T14:02:28;34.70;80.00
48019;DHT22;33786;48.690;9.562;2023-08-21T14:04:55;34.60;79.30
48019;DHT22;33786;48.690;9.562;2023-08-21T14:07:22;34.70;80.90
48019;DHT22;33786;48.690;9.562;2023-08-21T14:09:48;35.00;79.70
48019;DHT22;33786;48.690;9.562;2023-08-21T14:12:15;34.70;79.00
48019;DHT22;33786;48.690;9.562;2023-08-21T14:14:42;34.90;79.30
48019;DHT22;33786;48.690;9.562;2023-08-21T14:17:09;35.10;77.90
48019;DHT22;33786;48.690;9.562;2023-08-21T14:19:36;35.40;78.10
48019;DHT22;33786;48.690;9.562;2023-08-21T14:22:03;35.40;76.90
48019;DHT22;33786;48.690;9.562;2023-08-21T14:24:32;35.30;76.80
48019;DHT22;33786;48.690;9.562;2023-08-21T14:26:58;35.20;77.80
48019;DHT22;33786;48.690;9.562;2023-08-21T14:29:25;35.20;77.40
48019;DHT22;33786;48.690;9.562;2023-08-21T14:31:52;35.30;76.70
48019;DHT22;33786;48.690;9.562;2023-08-21T14:34:23;35.20;76.90
48019;DHT22;33786;48.690;9.562;2023-08-21T14:36:50;35.30;76.60
48019;DHT22;33786;48.690;9.562;2023-08-21T14:39:17;35.40;75.80
48019;DHT22;33786;48.690;9.562;2023-08-21T14:41:44;35.40;74.70
48019;DHT22;33786;48.690;9.562;2023-08-21T14:44:10;35.30;74.30
48019;DHT22;33786;48.690;9.562;2023-08-21T14:46:37;35.20;73.90
48019;DHT22;33786;48.690;9.562;2023-08-21T14:49:09;35.30;73.60
48019;DHT22;33786;48.690;9.562;2023-08-21T14:51:35;34.90;73.90
48019;DHT22;33786;48.690;9.562;2023-08-21T14:54:03;35.20;74.50
48019;DHT22;33786;48.690;9.562;2023-08-21T14:56:30;35.00;75.80
48019;DHT22;33786;48.690;9.562;2023-08-21T14:58:57;34.70;76.20
48019;DHT22;33786;48.690;9.562;2023-08-21T15:01:24;34.70;76.40
48019;DHT22;33786;48.690;9.562;2023-08-21T15:03:51;34.60;75.20
48019;DHT22;33786;48.690;9.562;2023-08-21T15:06:18;34.40;75.90
48019;DHT22;33786;48.690;9.562;2023-08-21T15:08:45;34.20;76.10
48019;DHT22;33786;48.690;9.562;2023-08-21T15:11:12;34.00;77.10
48019;DHT22;33786;48.690;9.562;2023-08-21T15:13:39;34.30;77.00
48019;DHT22;33786;48.690;9.562;2023-08-21T15:16:07;34.60;74.90
48019;DHT22;33786;48.690;9.562;2023-08-21T15:18:33;34.50;75.00
48019;DHT22;33786;48.690;9.562;2023-08-21T15:21:00;34.70;75.30
48019;DHT22;33786;48.690;9.562;2023-08-21T15:23:27;34.80;75.70
48019;DHT22;33786;48.690;9.562;2023-08-21T15:25:54;34.70;76.10
48019;DHT22;33786;48.690;9.562;2023-08-21T15:28:21;34.50;77.30
48019;DHT22;33786;48.690;9.562;2023-08-21T15:30:48;34.60;76.80
48019;DHT22;33786;48.690;9.562;2023-08-21T15:33:14;34.70;77.10
48019;DHT22;33786;48.690;9.562;2023-08-21T15:35:41;34.70;76.60
48019;DHT22;33786;48.690;9.562;2023-08-21T15:38:08;34.70;76.20
48019;DHT22;33786;48.690;9.562;2023-08-21T15:40:35;34.40;74.80
48019;DHT22;33786;48.690;9.562;2023-08-21T15:43:02;34.10;76.50